createdAt,value
2023-03-18T00:01:31.396Z,100658.59
2023-03-18T00:03:58.515Z,100652.44
2023-03-18T00:06:26.214Z,100653.31
2023-03-18T00:08:53.310Z,100667.19
2023-03-18T00:11:21.516Z,100674.97
2023-03-18T00:13:49.172Z,100669.75
2023-03-18T00:16:16.780Z,100681.03
2023-03-18T00:18:44.591Z,100682.72
2023-03-18T00:21:12.231Z,100676.59
2023-03-18T00:23:39.846Z,100682.63
2023-03-18T00:26:08.917Z,100678.22
2023-03-18T00:28:37.436Z,100679.84
2023-03-18T00:31:08.990Z,100682.31
2023-03-18T00:33:38.187Z,100692.69
2023-03-18T00:36:06.515Z,100682.25
2023-03-18T00:38:35.576Z,100685.66
2023-03-18T00:41:11.589Z,100688.13
2023-03-18T00:43:52.192Z,100693.25
2023-03-18T00:46:26.082Z,100694.94
2023-03-18T00:48:55.690Z,100700.06
2023-03-18T00:51:25.132Z,100700.91
2023-03-18T00:53:55.344Z,100692.25
2023-03-18T00:56:25.494Z,100698.31
2023-03-18T00:58:54.152Z,100698.38
2023-03-18T01:01:22.151Z,100687.94
2023-03-18T01:03:50.173Z,100679.28
2023-03-18T01:06:22.637Z,100687.94
2023-03-18T01:08:50.663Z,100689.69
2023-03-18T01:11:18.488Z,100678.44
2023-03-18T01:13:46.194Z,100682.75
2023-03-18T01:16:14.258Z,100681.88
2023-03-18T01:18:42.324Z,100683.56
2023-03-18T01:21:10.248Z,100687.88
2023-03-18T01:23:38.215Z,100687.06
2023-03-18T01:26:06.307Z,100671.38
2023-03-18T01:28:33.627Z,100690.47
2023-03-18T01:31:04.607Z,100674.81
2023-03-18T01:33:31.787Z,100694.75
2023-03-18T01:36:02.337Z,100696.50
2023-03-18T01:38:32.575Z,100689.59
2023-03-18T01:41:01.204Z,100693.97
2023-03-18T01:43:36.806Z,100687.88
2023-03-18T01:46:29.672Z,100694.03
2023-03-18T01:48:57.343Z,100688.69
2023-03-18T01:51:26.794Z,100693.94
2023-03-18T01:53:57.544Z,100693.94
2023-03-18T01:56:25.012Z,100690.47
2023-03-18T01:58:55.358Z,100692.25
2023-03-18T02:01:27.785Z,100687.91
2023-03-18T02:03:55.543Z,100687.03
2023-03-18T02:06:23.854Z,100693.06
2023-03-18T02:08:51.003Z,100695.66
2023-03-18T02:11:18.024Z,100702.59
2023-03-18T02:13:46.776Z,100694.88
2023-03-18T02:16:57.317Z,100695.91
2023-03-18T02:19:37.147Z,100704.63
2023-03-18T02:22:16.175Z,100703.75
2023-03-18T02:25:14.036Z,100701.03
2023-03-18T02:27:47.195Z,100707.69
2023-03-18T02:30:18.940Z,100705.06
2023-03-18T02:32:48.625Z,100710.25
2023-03-18T02:35:15.822Z,100703.25
2023-03-18T02:37:43.124Z,100705.00
2023-03-18T02:40:13.147Z,100703.31
2023-03-18T02:42:40.151Z,100707.66
2023-03-18T02:45:17.263Z,100708.50
2023-03-18T02:47:45.632Z,100700.66
2023-03-18T02:50:12.886Z,100715.44
2023-03-18T02:52:40.075Z,100708.50
2023-03-18T02:55:08.007Z,100715.44
2023-03-18T02:57:35.045Z,100719.72
2023-03-18T03:00:02.112Z,100715.34
2023-03-18T03:02:29.833Z,100716.19
2023-03-18T03:04:57.453Z,100718.66
2023-03-18T03:07:27.826Z,100712.59
2023-03-18T03:09:54.875Z,100706.53
2023-03-18T03:12:22.034Z,100722.13
2023-03-18T03:14:49.037Z,100709.19
2023-03-18T03:17:16.527Z,100710.88
2023-03-18T03:19:45.833Z,100716.91
2023-03-18T03:22:12.985Z,100721.25
2023-03-18T03:24:40.125Z,100715.16
2023-03-18T03:27:07.625Z,100720.41
2023-03-18T03:29:34.783Z,100729.94
2023-03-18T03:32:02.128Z,100717.75
2023-03-18T03:34:30.428Z,100723.78
2023-03-18T03:36:57.435Z,100723.75
2023-03-18T03:39:24.599Z,100735.97
2023-03-18T03:41:52.821Z,100732.50
2023-03-18T03:44:20.185Z,100739.50
2023-03-18T03:46:48.574Z,100742.88
2023-03-18T03:49:16.951Z,100741.16
2023-03-18T03:51:44.006Z,100740.34
2023-03-18T03:54:13.234Z,100748.16
2023-03-18T03:56:41.002Z,100742.91
2023-03-18T03:59:08.435Z,100743.78
2023-03-18T04:01:35.764Z,100741.22
2023-03-18T04:04:04.024Z,100743.84
2023-03-18T04:06:31.697Z,100748.19
2023-03-18T04:08:58.860Z,100748.13
2023-03-18T04:11:25.987Z,100752.41
2023-03-18T04:13:53.108Z,100755.00
2023-03-18T04:16:20.268Z,100753.31
2023-03-18T04:18:47.557Z,100746.38
2023-03-18T04:21:14.971Z,100750.72
2023-03-18T04:23:42.308Z,100753.25
2023-03-18T04:26:09.381Z,100755.84
2023-03-18T04:28:36.475Z,100756.69
2023-03-18T04:31:03.549Z,100757.53
2023-03-18T04:33:32.096Z,100760.94
2023-03-18T04:35:59.378Z,100753.94
2023-03-18T04:38:28.296Z,100759.13
2023-03-18T04:40:55.380Z,100760.00
2023-03-18T04:43:22.832Z,100756.59
2023-03-18T04:45:50.200Z,100752.31
2023-03-18T04:48:18.197Z,100740.06
2023-03-18T04:50:46.056Z,100754.84
2023-03-18T04:53:13.253Z,100755.75
2023-03-18T04:55:40.722Z,100757.66
2023-03-18T04:58:08.351Z,100755.72
2023-03-18T05:00:35.621Z,100755.72
2023-03-18T05:03:03.666Z,100762.63
2023-03-18T05:05:31.352Z,100760.88
2023-03-18T05:07:58.525Z,100753.00
2023-03-18T05:10:25.585Z,100764.16
2023-03-18T05:12:52.759Z,100770.19
2023-03-18T05:15:20.193Z,100756.13
2023-03-18T05:17:47.631Z,100777.72
2023-03-18T05:20:14.837Z,100776.88
2023-03-18T05:22:42.072Z,100781.19
2023-03-18T05:25:11.526Z,100781.97
2023-03-18T05:27:38.785Z,100781.09
2023-03-18T05:30:06.553Z,100780.19
2023-03-18T05:32:33.705Z,100792.22
2023-03-18T05:35:00.937Z,100778.31
2023-03-18T05:37:28.055Z,100787.94
2023-03-18T05:39:55.239Z,100792.38
2023-03-18T05:42:23.385Z,100784.38
2023-03-18T05:44:50.716Z,100796.56
2023-03-18T05:47:18.002Z,100783.69
2023-03-18T05:49:45.098Z,100794.97
2023-03-18T05:52:12.320Z,100795.84
2023-03-18T05:54:39.612Z,100807.00
2023-03-18T05:57:07.417Z,100801.91
2023-03-18T05:59:34.838Z,100806.19
2023-03-18T06:02:02.221Z,100809.59
2023-03-18T06:04:30.420Z,100801.84
2023-03-18T06:06:58.259Z,100809.75
2023-03-18T06:09:25.892Z,100806.28
2023-03-18T06:11:52.995Z,100816.78
2023-03-18T06:14:20.193Z,100818.69
2023-03-18T06:16:47.337Z,100816.94
2023-03-18T06:19:14.514Z,100820.47
2023-03-18T06:21:41.661Z,100821.38
2023-03-18T06:24:09.644Z,100826.56
2023-03-18T06:26:36.826Z,100818.72
2023-03-18T06:29:05.289Z,100820.47
2023-03-18T06:31:33.817Z,100829.00
2023-03-18T06:34:01.580Z,100843.63
2023-03-18T06:36:29.584Z,100838.34
2023-03-18T06:38:56.751Z,100847.94
2023-03-18T06:41:23.855Z,100848.84
2023-03-18T06:43:52.302Z,100844.44
2023-03-18T06:46:19.477Z,100860.22
2023-03-18T06:48:46.695Z,100855.97
2023-03-18T06:51:13.770Z,100862.88
2023-03-18T06:53:41.995Z,100857.78
2023-03-18T06:56:09.960Z,100850.81
2023-03-18T06:58:37.734Z,100853.44
2023-03-18T07:01:05.091Z,100863.00
2023-03-18T07:03:32.923Z,100862.13
2023-03-18T07:06:01.115Z,100856.03
2023-03-18T07:08:30.092Z,100869.06
2023-03-18T07:10:57.789Z,100872.41
2023-03-18T07:13:25.257Z,100871.59
2023-03-18T07:15:52.409Z,100870.00
2023-03-18T07:18:19.641Z,100877.09
2023-03-18T07:20:46.682Z,100878.00
2023-03-18T07:23:14.036Z,100881.41
2023-03-18T07:25:42.068Z,100881.44
2023-03-18T07:28:09.240Z,100887.53
2023-03-18T07:30:36.525Z,100887.69
2023-03-18T07:33:04.596Z,100890.19
2023-03-18T07:35:32.286Z,100900.66
2023-03-18T07:38:00.981Z,100899.56
2023-03-18T07:40:28.218Z,100892.66
2023-03-18T07:42:55.710Z,100894.53
2023-03-18T07:45:22.807Z,100898.03
2023-03-18T07:47:50.151Z,100906.13
2023-03-18T07:50:18.422Z,100902.75
2023-03-18T07:52:45.501Z,100902.03
2023-03-18T07:55:12.589Z,100909.94
2023-03-18T07:57:40.735Z,100912.66
2023-03-18T08:00:10.531Z,100908.50
2023-03-18T08:02:37.924Z,100913.81
2023-03-18T08:05:06.929Z,100911.16
2023-03-18T08:07:35.586Z,100922.50
2023-03-18T08:10:02.722Z,100913.88
2023-03-18T08:12:45.310Z,100912.25
2023-03-18T08:15:16.455Z,100916.69
2023-03-18T08:17:43.612Z,100908.91
2023-03-18T08:20:12.237Z,100922.84
2023-03-18T08:22:39.271Z,100915.91
2023-03-18T08:25:06.668Z,100924.66
2023-03-18T08:27:33.924Z,100911.78
2023-03-18T08:30:03.510Z,100920.34
2023-03-18T08:32:30.983Z,100915.16
2023-03-18T08:34:58.209Z,100910.81
2023-03-18T08:37:25.937Z,100929.03
2023-03-18T08:39:52.996Z,100924.78
2023-03-18T08:42:20.864Z,100917.91
2023-03-18T08:44:48.868Z,100918.75
2023-03-18T08:47:16.003Z,100915.31
2023-03-18T08:49:43.084Z,100917.91
2023-03-18T08:52:10.562Z,100925.69
2023-03-18T08:54:37.910Z,100923.06
2023-03-18T08:57:05.141Z,100921.44
2023-03-18T08:59:32.527Z,100923.16
2023-03-18T09:02:00.451Z,100918.91
2023-03-18T09:04:27.479Z,100919.84
2023-03-18T09:06:54.709Z,100921.72
2023-03-18T09:09:26.271Z,100922.69
2023-03-18T09:11:58.281Z,100913.19
2023-03-18T09:14:26.407Z,100914.97
2023-03-18T09:16:54.750Z,100930.63
2023-03-18T09:19:21.998Z,100922.84
2023-03-18T09:21:49.209Z,100938.47
2023-03-18T09:24:16.480Z,100922.00
2023-03-18T09:26:43.736Z,100931.56
2023-03-18T09:29:11.261Z,100936.75
2023-03-18T09:31:38.652Z,100938.50
2023-03-18T09:34:06.123Z,100948.91
2023-03-18T09:36:33.809Z,100950.66
2023-03-18T09:39:01.034Z,100952.34
2023-03-18T09:41:44.150Z,100943.53
2023-03-18T09:44:24.249Z,100955.75
2023-03-18T09:47:29.360Z,100954.81
2023-03-18T09:50:15.888Z,100961.75
2023-03-18T09:52:49.318Z,100957.44
2023-03-18T09:55:40.217Z,100955.75
2023-03-18T09:58:23.412Z,100957.59
2023-03-18T10:00:57.120Z,100960.25
2023-03-18T10:03:30.590Z,100958.56
2023-03-18T10:06:06.780Z,100963.81
2023-03-18T10:09:01.183Z,100965.63
2023-03-18T10:11:30.992Z,100967.44
2023-03-18T10:14:08.993Z,100973.53
2023-03-18T10:16:48.945Z,100964.84
2023-03-18T10:19:16.149Z,100967.41
2023-03-18T10:22:06.231Z,100976.13
2023-03-18T10:24:35.923Z,100975.28
2023-03-18T10:27:15.290Z,100984.91
2023-03-18T10:29:46.991Z,100980.59
2023-03-18T10:32:49.065Z,100984.06
2023-03-18T10:35:31.786Z,100964.84
2023-03-18T10:38:17.985Z,100970.94
2023-03-18T10:40:47.503Z,100945.78
2023-03-18T10:43:25.120Z,100961.47
2023-03-18T10:46:11.843Z,100965.88
2023-03-18T10:48:49.995Z,100972.84
2023-03-18T10:51:34.502Z,100972.00
2023-03-18T10:54:19.192Z,100962.44
2023-03-18T10:56:46.622Z,100958.94
2023-03-18T10:59:18.126Z,100963.28
2023-03-18T11:01:51.396Z,100958.97
2023-03-18T11:04:21.732Z,100945.06
2023-03-18T11:07:14.923Z,100952.00
2023-03-18T11:09:42.482Z,100954.63
2023-03-18T11:12:18.942Z,100955.47
2023-03-18T11:14:49.171Z,100943.31
2023-03-18T11:17:33.162Z,100953.72
2023-03-18T11:20:05.420Z,100951.09
2023-03-18T11:22:33.155Z,100957.19
2023-03-18T11:25:13.902Z,100959.75
2023-03-18T11:27:45.704Z,100952.78
2023-03-18T11:30:34.654Z,100955.38
2023-03-18T11:33:11.741Z,100964.97
2023-03-18T11:36:01.053Z,100960.59
2023-03-18T11:38:31.749Z,100971.06
2023-03-18T11:41:09.212Z,100969.34
2023-03-18T11:43:38.043Z,100965.84
2023-03-18T11:46:09.482Z,100959.66
2023-03-18T11:48:39.741Z,100964.84
2023-03-18T11:51:25.204Z,100965.75
2023-03-18T11:54:09.540Z,100967.53
2023-03-18T11:56:55.526Z,100958.84
2023-03-18T11:59:34.966Z,100959.66
2023-03-18T12:02:18.587Z,100957.97
2023-03-18T12:05:16.770Z,100951.00
2023-03-18T12:08:09.978Z,100956.25
2023-03-18T12:10:47.058Z,100962.38
2023-03-18T12:13:32.738Z,100958.00
2023-03-18T12:16:43.598Z,100956.25
2023-03-18T12:19:41.790Z,100948.41
2023-03-18T12:22:47.616Z,100942.28
2023-03-18T12:25:23.959Z,100939.56
2023-03-18T12:28:09.070Z,100947.34
2023-03-18T12:30:53.873Z,100942.97
2023-03-18T12:33:31.615Z,100951.63
2023-03-18T12:36:12.478Z,100955.19
2023-03-18T12:39:02.457Z,100959.56
2023-03-18T12:41:41.041Z,100956.13
2023-03-18T12:44:46.595Z,100958.72
2023-03-18T12:47:37.146Z,100959.66
2023-03-18T12:50:21.070Z,100958.84
2023-03-18T12:53:17.174Z,100952.78
2023-03-18T12:55:48.181Z,100938.91
2023-03-18T12:58:23.233Z,100957.16
2023-03-18T13:01:06.865Z,100950.22
2023-03-18T13:03:36.063Z,100950.22
2023-03-18T13:06:10.107Z,100963.28
2023-03-18T13:09:16.601Z,100957.19
2023-03-18T13:11:50.818Z,100959.81
2023-03-18T13:15:08.204Z,100956.31
2023-03-18T13:17:41.676Z,100958.94
2023-03-18T13:20:23.851Z,100952.00
2023-03-18T13:23:05.777Z,100955.47
2023-03-18T13:25:49.485Z,100947.66
2023-03-18T13:28:36.827Z,100952.84
2023-03-18T13:31:14.306Z,100962.44
2023-03-18T13:34:00.509Z,100958.09
2023-03-18T13:36:41.635Z,100954.63
2023-03-18T13:39:33.571Z,100962.44
2023-03-18T13:42:18.248Z,100957.22
2023-03-18T13:44:55.438Z,100958.09
2023-03-18T13:47:23.721Z,100939.84
2023-03-18T13:50:01.106Z,100935.47
2023-03-18T13:52:40.841Z,100949.38
2023-03-18T13:55:33.067Z,100948.53
2023-03-18T13:58:13.590Z,100947.59
2023-03-18T14:00:46.253Z,100942.38
2023-03-18T14:03:18.150Z,100939.75
2023-03-18T14:05:47.258Z,100945.81
2023-03-18T14:08:38.972Z,100934.47
2023-03-18T14:11:23.135Z,100934.44
2023-03-18T14:13:56.551Z,100930.94
2023-03-18T14:16:51.329Z,100932.72
2023-03-18T14:19:24.168Z,100920.50
2023-03-18T14:21:53.510Z,100929.25
2023-03-18T14:24:24.493Z,100925.78
2023-03-18T14:27:03.646Z,100920.59
2023-03-18T14:29:36.564Z,100919.75
2023-03-18T14:32:08.467Z,100923.25
2023-03-18T14:34:59.592Z,100931.88
2023-03-18T14:37:30.619Z,100925.81
2023-03-18T14:40:12.608Z,100923.19
2023-03-18T14:42:53.799Z,100924.03
2023-03-18T14:45:36.194Z,100913.63
2023-03-18T14:48:12.092Z,100911.88
2023-03-18T14:50:47.721Z,100906.63
2023-03-18T14:53:30.612Z,100901.38
2023-03-18T14:55:59.843Z,100902.22
2023-03-18T14:58:28.592Z,100889.13
2023-03-18T15:01:06.638Z,100897.50
2023-03-18T15:03:34.465Z,100885.81
2023-03-18T15:06:04.894Z,100878.59
2023-03-18T15:08:47.321Z,100890.34
2023-03-18T15:11:16.870Z,100876.16
2023-03-18T15:13:44.860Z,100885.66
2023-03-18T15:16:17.122Z,100883.06
2023-03-18T15:18:44.500Z,100882.09
2023-03-18T15:21:22.478Z,100876.31
2023-03-18T15:23:55.705Z,100877.75
2023-03-18T15:26:25.433Z,100886.09
2023-03-18T15:29:02.054Z,100866.66
2023-03-18T15:31:41.203Z,100873.13
2023-03-18T15:34:30.690Z,100869.09
2023-03-18T15:37:00.983Z,100888.88
2023-03-18T15:39:32.501Z,100882.09
2023-03-18T15:42:02.235Z,100867.00
2023-03-18T15:44:32.245Z,100871.59
2023-03-18T15:47:24.046Z,100871.59
2023-03-18T15:49:57.661Z,100884.94
2023-03-18T15:52:25.691Z,100878.91
2023-03-18T15:54:53.677Z,100880.00
2023-03-18T15:57:31.995Z,100877.06
2023-03-18T15:59:59.394Z,100881.38
2023-03-18T16:02:27.473Z,100867.22
2023-03-18T16:05:16.652Z,100865.84
2023-03-18T16:07:43.847Z,100874.78
2023-03-18T16:10:11.573Z,100874.06
2023-03-18T16:12:39.582Z,100872.91
2023-03-18T16:15:07.787Z,100875.72
2023-03-18T16:17:34.853Z,100872.28
2023-03-18T16:20:04.252Z,100876.78
2023-03-18T16:22:33.677Z,100872.88
2023-03-18T16:25:01.157Z,100880.91
2023-03-18T16:27:34.798Z,100885.03
2023-03-18T16:30:01.934Z,100881.44
2023-03-18T16:32:29.526Z,100880.28
2023-03-18T16:34:56.599Z,100876.78
2023-03-18T16:37:27.757Z,100877.56
2023-03-18T16:39:55.816Z,100870.81
2023-03-18T16:42:25.800Z,100873.16
2023-03-18T16:44:53.244Z,100871.72
2023-03-18T16:47:25.398Z,100880.97
2023-03-18T16:49:53.102Z,100877.72
2023-03-18T16:52:20.202Z,100886.56
2023-03-18T16:54:47.305Z,100871.09
2023-03-18T16:57:18.782Z,100880.25
2023-03-18T16:59:50.850Z,100874.22
2023-03-18T17:02:35.810Z,100875.38
2023-03-18T17:05:03.109Z,100873.91
2023-03-18T17:07:31.223Z,100874.22
2023-03-18T17:09:58.477Z,100860.66
2023-03-18T17:12:26.207Z,100874.75
2023-03-18T17:14:57.373Z,100885.34
2023-03-18T17:17:29.825Z,100887.25
2023-03-18T17:19:59.768Z,100887.44
2023-03-18T17:22:29.622Z,100890.97
2023-03-18T17:24:57.283Z,100882.38
2023-03-18T17:27:31.992Z,100866.78
2023-03-18T17:29:59.767Z,100879.81
2023-03-18T17:32:27.320Z,100878.97
2023-03-18T17:34:54.805Z,100877.28
2023-03-18T17:37:23.442Z,100877.25
2023-03-18T17:39:50.596Z,100874.66
2023-03-18T17:42:30.552Z,100873.75
2023-03-18T17:45:05.627Z,100877.16
2023-03-18T17:47:32.864Z,100881.50
2023-03-18T17:50:00.931Z,100873.69
2023-03-18T17:52:28.035Z,100875.41
2023-03-18T17:54:55.677Z,100873.59
2023-03-18T17:57:23.160Z,100871.00
2023-03-18T17:59:51.570Z,100875.34
2023-03-18T18:02:20.364Z,100878.78
2023-03-18T18:04:47.489Z,100876.13
2023-03-18T18:07:19.573Z,100881.31
2023-03-18T18:09:46.938Z,100887.34
2023-03-18T18:12:22.060Z,100884.72
2023-03-18T18:14:49.907Z,100888.19
2023-03-18T18:17:17.236Z,100881.19
2023-03-18T18:19:44.606Z,100895.91
2023-03-18T18:22:17.871Z,100892.38
2023-03-18T18:24:47.016Z,100894.97
2023-03-18T18:27:15.350Z,100893.22
2023-03-18T18:29:46.052Z,100892.34
2023-03-18T18:32:13.254Z,100900.16
2023-03-18T18:34:40.603Z,100894.91
2023-03-18T18:37:08.132Z,100888.72
2023-03-18T18:39:35.270Z,100900.88
2023-03-18T18:42:04.573Z,100902.66
2023-03-18T18:44:31.779Z,100897.44
2023-03-18T18:46:59.461Z,100898.34
2023-03-18T18:49:26.615Z,100889.56
2023-03-18T18:51:55.564Z,100902.66
2023-03-18T18:54:24.449Z,100905.28
2023-03-18T18:56:52.362Z,100912.22
2023-03-18T18:59:27.032Z,100912.25
2023-03-18T19:01:55.563Z,100911.41
2023-03-18T19:04:23.998Z,100906.16
2023-03-18T19:06:52.454Z,100906.13
2023-03-18T19:09:24.574Z,100913.84
2023-03-18T19:11:53.279Z,100909.53
2023-03-18T19:14:24.592Z,100913.06
2023-03-18T19:16:53.739Z,100912.19
2023-03-18T19:19:24.707Z,100905.16
2023-03-18T19:21:52.146Z,100907.78
2023-03-18T19:24:32.670Z,100896.50
2023-03-18T19:27:05.778Z,100906.13
2023-03-18T19:29:33.324Z,100903.47
2023-03-18T19:32:03.882Z,100896.50
2023-03-18T19:34:32.524Z,100894.81
2023-03-18T19:37:05.691Z,100894.03
2023-03-18T19:39:32.764Z,100896.50
2023-03-18T19:42:00.604Z,100898.22
2023-03-18T19:44:27.786Z,100902.69
2023-03-18T19:46:59.535Z,100903.50
2023-03-18T19:49:33.664Z,100902.56
2023-03-18T19:52:02.624Z,100922.50
2023-03-18T19:54:32.729Z,100915.53
2023-03-18T19:57:03.335Z,100941.47
2023-03-18T19:59:38.769Z,100936.16
2023-03-18T20:02:34.422Z,100958.66
2023-03-18T20:05:04.517Z,100964.69
2023-03-18T20:07:32.804Z,100952.59
2023-03-18T20:10:02.934Z,100956.06
2023-03-18T20:12:41.035Z,100946.44
2023-03-18T20:15:17.771Z,100959.56
2023-03-18T20:17:46.773Z,100968.28
2023-03-18T20:20:23.514Z,100968.28
2023-03-18T20:23:03.365Z,100983.06
2023-03-18T20:25:36.168Z,100982.97
2023-03-18T20:28:04.827Z,100988.81
2023-03-18T20:30:34.235Z,100988.69
2023-03-18T20:33:05.078Z,100981.53
2023-03-18T20:35:35.785Z,100978.78
2023-03-18T20:38:24.693Z,100981.06
2023-03-18T20:40:51.784Z,100968.00
2023-03-18T20:43:21.814Z,100972.06
2023-03-18T20:45:51.459Z,100966.94
2023-03-18T20:48:19.314Z,100964.34
2023-03-18T20:50:46.815Z,100965.19
2023-03-18T20:53:21.863Z,100960.06
2023-03-18T20:55:49.673Z,100954.81
2023-03-18T20:58:21.878Z,100957.44
2023-03-18T21:00:49.346Z,100953.13
2023-03-18T21:03:29.552Z,100968.81
2023-03-18T21:06:00.393Z,100961.91
2023-03-18T21:08:28.094Z,100960.09
2023-03-18T21:10:56.669Z,100953.84
2023-03-18T21:13:36.171Z,100959.00
2023-03-18T21:16:07.991Z,100962.53
2023-03-18T21:18:35.608Z,100965.94
2023-03-18T21:21:02.759Z,100964.16
2023-03-18T21:23:34.618Z,100970.19
2023-03-18T21:26:01.940Z,100966.63
2023-03-18T21:28:30.350Z,100961.41
2023-03-18T21:30:58.604Z,100965.78
2023-03-18T21:33:32.444Z,100957.13
2023-03-18T21:36:01.367Z,100965.72
2023-03-18T21:38:32.557Z,100964.00
2023-03-18T21:41:01.340Z,100965.59
2023-03-18T21:43:33.525Z,100960.44
2023-03-18T21:46:01.842Z,100949.13
2023-03-18T21:48:29.545Z,100957.00
2023-03-18T21:50:56.668Z,100957.03
2023-03-18T21:53:24.949Z,100954.47
2023-03-18T21:55:52.291Z,100938.88
2023-03-18T21:58:27.194Z,100950.19
2023-03-18T22:00:58.104Z,100952.78
2023-03-18T22:03:28.016Z,100951.03
2023-03-18T22:05:56.394Z,100950.06
2023-03-18T22:08:24.254Z,100949.25
2023-03-18T22:10:52.335Z,100952.72
2023-03-18T22:13:20.844Z,100944.94
2023-03-18T22:15:49.736Z,100943.25
2023-03-18T22:18:17.135Z,100942.34
2023-03-18T22:20:46.284Z,100938.91
2023-03-18T22:23:35.725Z,100934.59
2023-03-18T22:26:03.692Z,100915.50
2023-03-18T22:28:32.477Z,100935.56
2023-03-18T22:31:03.155Z,100929.53
2023-03-18T22:33:33.214Z,100929.47
2023-03-18T22:36:01.170Z,100921.63
2023-03-18T22:38:28.492Z,100921.66
2023-03-18T22:40:57.151Z,100929.44
2023-03-18T22:43:27.640Z,100933.81
2023-03-18T22:45:54.840Z,100930.44
2023-03-18T22:48:22.275Z,100940.94
2023-03-18T22:50:49.717Z,100935.88
2023-03-18T22:53:27.071Z,100936.63
2023-03-18T22:55:56.119Z,100923.53
2023-03-18T22:58:26.417Z,100923.59
2023-03-18T23:00:55.072Z,100932.19
2023-03-18T23:03:26.492Z,100917.44
2023-03-18T23:05:55.297Z,100936.53
2023-03-18T23:08:23.056Z,100924.19
2023-03-18T23:10:52.526Z,100939.00
2023-03-18T23:13:19.586Z,100938.09
2023-03-18T23:15:46.717Z,100937.22
2023-03-18T23:18:15.867Z,100939.75
2023-03-18T23:20:44.624Z,100939.75
2023-03-18T23:23:12.563Z,100929.31
2023-03-18T23:25:41.065Z,100944.09
2023-03-18T23:28:08.308Z,100937.22
2023-03-18T23:30:39.209Z,100939.84
2023-03-18T23:33:07.304Z,100934.66
2023-03-18T23:35:35.070Z,100939.06
2023-03-18T23:38:02.470Z,100947.53
2023-03-18T23:40:30.297Z,100944.25
2023-03-18T23:42:57.323Z,100925.91
2023-03-18T23:45:28.029Z,100937.25
2023-03-18T23:47:55.900Z,100939.78
2023-03-18T23:50:23.545Z,100937.25
2023-03-18T23:52:50.689Z,100935.41
2023-03-18T23:55:33.575Z,100941.34
2023-03-18T23:58:01.002Z,100944.94
